Time;durP1;ratioP1;P1;durP2;ratioP2;P2;SDS_P1;SDS_P2;PMS_P1;PMS_P2;Temp;Humidity;BMP_temperature;BMP_pressure;BME280_temperature;BME280_humidity;BME280_pressure;Samples;Min_cycle;Max_cycle;Signal;HPM_P1;HPM_P2
2023/02/28 00:01:27;;;;;;;3.15;1.10;;;3.00;76.70;;;;;;4995950;28;20175;-77
2023/02/28 00:03:53;;;;;;;2.83;1.13;;;2.90;76.60;;;;;;4993478;28;20316;-77
2023/02/28 00:06:18;;;;;;;5.70;1.07;;;2.90;77.10;;;;;;5010109;28;20589;-77
2023/02/28 00:08:44;;;;;;;2.63;1.10;;;2.90;76.70;;;;;;4993145;28;20170;-78
2023/02/28 00:11:34;;;;;;;3.20;1.40;;;2.90;76.50;;;;;;5013551;28;20216;-75
2023/02/28 00:14:00;;;;;;;4.15;1.30;;;2.90;77.60;;;;;;4992678;28;20206;-77
2023/02/28 00:16:26;;;;;;;2.50;1.40;;;2.90;77.10;;;;;;5010736;28;20537;-77
2023/02/28 00:18:52;;;;;;;1.80;1.20;;;2.90;77.50;;;;;;5010422;28;20257;-78
2023/02/28 00:21:19;;;;;;;2.03;1.17;;;2.90;77.30;;;;;;5001112;28;20537;-78
2023/02/28 00:23:45;;;;;;;1.95;1.05;;;2.90;78.40;;;;;;5012487;28;20178;-78
2023/02/28 00:26:11;;;;;;;2.43;1.07;;;2.90;77.50;;;;;;5012588;28;20189;-78
2023/02/28 00:28:37;;;;;;;2.95;1.17;;;2.90;77.50;;;;;;5013357;28;20260;-78
2023/02/28 00:31:03;;;;;;;4.90;1.40;;;2.90;77.60;;;;;;5015843;28;20609;-78
2023/02/28 00:33:29;;;;;;;2.60;1.35;;;2.90;77.50;;;;;;5000032;28;20182;-78
2023/02/28 00:36:04;;;;;;;1.87;0.90;;;2.90;77.80;;;;;;4999623;28;20584;-79
2023/02/28 00:38:30;;;;;;;2.80;1.17;;;2.90;78.50;;;;;;5018289;28;20601;-79
2023/02/28 00:40:56;;;;;;;3.90;1.20;;;2.80;78.20;;;;;;5015330;28;20357;-78
2023/02/28 00:43:22;;;;;;;3.47;1.90;;;2.80;78.20;;;;;;5015537;28;20580;-78
2023/02/28 00:45:47;;;;;;;4.10;1.10;;;2.80;78.30;;;;;;5015886;28;20252;-78
2023/02/28 00:48:13;;;;;;;3.50;1.20;;;2.70;79.10;;;;;;5034100;28;20977;-78
2023/02/28 00:50:38;;;;;;;3.43;1.63;;;2.70;79.10;;;;;;5015408;28;20267;-79
2023/02/28 00:53:04;;;;;;;4.17;1.40;;;2.70;79.30;;;;;;5016107;28;20182;-78
2023/02/28 00:55:30;;;;;;;1.87;0.90;;;2.70;79.30;;;;;;4992303;28;20214;-79
2023/02/28 00:57:55;;;;;;;1.73;1.00;;;2.70;79.50;;;;;;4996429;28;20180;-79
2023/02/28 01:00:21;;;;;;;2.60;1.37;;;2.60;79.60;;;;;;5015682;28;20560;-78
2023/02/28 01:02:49;;;;;;;3.55;1.02;;;2.60;80.20;;;;;;4998410;28;20596;-78
2023/02/28 01:05:15;;;;;;;1.90;1.10;;;2.60;80.40;;;;;;4996382;28;20170;-78
2023/02/28 01:07:41;;;;;;;1.97;1.37;;;2.60;81.10;;;;;;4995806;28;20630;-79
2023/02/28 01:10:07;;;;;;;1.93;1.20;;;2.60;81.30;;;;;;4996162;28;20617;-79
2023/02/28 01:12:33;;;;;;;1.60;1.02;;;2.60;81.00;;;;;;5012005;28;20648;-78
2023/02/28 01:14:59;;;;;;;4.60;1.60;;;2.60;81.10;;;;;;5015754;28;20256;-78
2023/02/28 01:17:26;;;;;;;2.33;1.07;;;2.60;81.30;;;;;;5015056;28;20205;-78
2023/02/28 01:19:54;;;;;;;2.17;1.27;;;2.60;81.70;;;;;;5012595;28;20208;-77
2023/02/28 01:22:20;;;;;;;2.15;1.48;;;2.60;81.90;;;;;;5031429;28;20567;-78
2023/02/28 01:24:46;;;;;;;2.83;1.30;;;2.60;82.10;;;;;;5015395;28;20177;-77
2023/02/28 01:27:12;;;;;;;2.93;1.40;;;2.60;81.90;;;;;;5033152;28;20182;-77
2023/02/28 01:29:37;;;;;;;2.20;1.10;;;2.60;82.10;;;;;;5015218;28;20604;-76
2023/02/28 01:32:03;;;;;;;2.13;1.27;;;2.60;82.30;;;;;;5015188;28;20177;-78
2023/02/28 01:34:29;;;;;;;4.10;1.97;;;2.60;82.10;;;;;;5015577;28;20218;-78
2023/02/28 01:36:55;;;;;;;2.00;1.20;;;2.60;82.30;;;;;;5015116;28;21155;-77
2023/02/28 01:39:21;;;;;;;2.33;1.33;;;2.60;82.40;;;;;;5015012;28;20284;-77
2023/02/28 01:41:47;;;;;;;2.15;1.10;;;2.60;82.90;;;;;;5013296;28;20514;-78
2023/02/28 01:44:50;;;;;;;2.17;1.20;;;2.60;82.80;;;;;;5015478;28;20188;-78
2023/02/28 01:47:16;;;;;;;4.15;1.38;;;2.60;83.50;;;;;;5032641;28;20722;-78
2023/02/28 01:49:42;;;;;;;2.13;1.10;;;2.60;82.70;;;;;;5010907;28;20682;-78
2023/02/28 01:52:17;;;;;;;2.03;0.95;;;2.60;83.40;;;;;;4986499;28;20210;-77
2023/02/28 01:54:51;;;;;;;2.63;0.90;;;2.50;83.70;;;;;;4979141;28;20344;-78
2023/02/28 01:57:22;;;;;;;2.40;1.20;;;2.50;83.70;;;;;;4978932;28;20188;-77
2023/02/28 01:59:52;;;;;;;2.50;1.10;;;2.50;84.20;;;;;;4978337;28;20222;-78
2023/02/28 02:02:23;;;;;;;2.17;1.40;;;2.50;84.20;;;;;;4977793;28;20232;-78
2023/02/28 02:05:18;;;;;;;2.22;1.48;;;2.50;84.40;;;;;;4992425;28;20527;-78
2023/02/28 02:07:48;;;;;;;1.65;1.05;;;2.40;84.60;;;;;;4995466;28;20173;-78
2023/02/28 02:10:21;;;;;;;5.38;1.00;;;2.40;85.80;;;;;;4987498;28;20203;-78
2023/02/28 02:12:53;;;;;;;2.85;2.47;;;2.40;87.60;;;;;;4981390;28;20260;-78
2023/02/28 02:15:33;;;;;;;2.30;0.93;;;2.40;86.30;;;;;;4999737;28;20210;-79
2023/02/28 02:18:10;;;;;;;2.75;1.02;;;2.40;86.00;;;;;;4998555;28;20170;-79
2023/02/28 02:21:07;;;;;;;2.13;1.02;;;2.40;86.10;;;;;;4996979;28;20182;-78
2023/02/28 02:23:45;;;;;;;1.95;1.00;;;2.40;86.00;;;;;;4929247;28;20207;-78
2023/02/28 02:26:28;;;;;;;2.25;1.00;;;2.40;86.40;;;;;;5014236;28;20169;-78
2023/02/28 02:28:54;;;;;;;2.78;1.00;;;2.40;86.30;;;;;;5014831;28;20607;-78
2023/02/28 02:31:51;;;;;;;2.30;1.30;;;2.40;88.10;;;;;;5033963;28;20229;-78
2023/02/28 02:34:25;;;;;;;2.67;1.00;;;2.40;87.00;;;;;;5032039;28;20296;-78
2023/02/28 02:37:12;;;;;;;1.92;1.00;;;2.30;86.70;;;;;;5014131;28;20371;-78
2023/02/28 02:40:03;;;;;;;4.50;0.98;;;2.40;86.70;;;;;;5013662;28;20531;-79
2023/02/28 02:42:36;;;;;;;2.65;1.13;;;2.30;86.90;;;;;;5013621;28;20184;-79
2023/02/28 02:45:27;;;;;;;2.50;1.10;;;2.30;86.70;;;;;;5014338;28;20231;-79
2023/02/28 02:47:58;;;;;;;3.35;0.93;;;2.30;87.50;;;;;;5004604;28;20243;-78
2023/02/28 02:50:34;;;;;;;1.60;1.00;;;2.30;86.70;;;;;;5031579;28;20216;-79
2023/02/28 02:53:03;;;;;;;2.03;1.00;;;2.30;87.20;;;;;;4996968;28;20271;-79
2023/02/28 02:55:37;;;;;;;2.30;1.00;;;2.30;86.70;;;;;;5014120;28;20205;-78
2023/02/28 02:58:07;;;;;;;2.40;0.98;;;2.30;86.70;;;;;;5014492;28;20174;-79
2023/02/28 03:00:46;;;;;;;1.80;0.90;;;2.30;86.70;;;;;;5012976;28;20736;-79
2023/02/28 03:03:12;;;;;;;2.03;1.20;;;2.30;86.70;;;;;;5031550;28;20264;-78
2023/02/28 03:05:49;;;;;;;2.30;1.35;;;2.30;87.20;;;;;;5031560;28;20170;-79
2023/02/28 03:08:15;;;;;;;3.28;1.25;;;2.30;87.50;;;;;;5017880;28;20177;-78
2023/02/28 03:10:47;;;;;;;2.47;1.10;;;2.20;87.20;;;;;;5019977;28;20282;-78
2023/02/28 03:13:25;;;;;;;2.15;0.95;;;2.30;87.20;;;;;;4977382;28;20589;-78
2023/02/28 03:16:16;;;;;;;2.50;1.30;;;2.20;86.80;;;;;;4993734;28;20241;-79
2023/02/28 03:19:17;;;;;;;2.15;1.10;;;2.30;86.70;;;;;;4977814;28;20850;-79
2023/02/28 03:22:17;;;;;;;1.70;0.98;;;2.30;86.70;;;;;;4992397;28;20182;-78
2023/02/28 03:25:08;;;;;;;2.38;1.27;;;2.20;86.50;;;;;;4993984;28;20734;-79
2023/02/28 03:27:41;;;;;;;1.98;0.88;;;2.20;86.40;;;;;;5011069;28;20612;-78
2023/02/28 03:30:17;;;;;;;1.80;1.00;;;2.20;86.20;;;;;;5011167;28;20210;-79
2023/02/28 03:32:54;;;;;;;1.67;1.08;;;2.20;86.30;;;;;;5010863;28;20807;-78
2023/02/28 03:35:24;;;;;;;3.40;1.30;;;2.20;86.30;;;;;;5011136;28;20530;-79
2023/02/28 03:37:55;;;;;;;1.67;0.90;;;2.10;86.20;;;;;;5010799;28;20170;-79
2023/02/28 03:40:24;;;;;;;1.60;0.90;;;2.20;86.40;;;;;;5010800;28;20198;-79
2023/02/28 03:42:55;;;;;;;2.20;1.40;;;2.20;87.30;;;;;;4993487;28;20174;-79
2023/02/28 03:45:26;;;;;;;1.88;1.00;;;2.20;86.70;;;;;;4994550;28;20178;-79
2023/02/28 03:48:00;;;;;;;1.75;0.90;;;2.20;86.80;;;;;;5010149;28;20620;-79
2023/02/28 03:50:36;;;;;;;2.42;1.17;;;2.20;86.70;;;;;;4992790;28;20206;-79
2023/02/28 03:53:18;;;;;;;1.70;0.90;;;2.20;86.90;;;;;;4977052;28;20177;-79
2023/02/28 03:55:48;;;;;;;1.70;0.80;;;2.20;86.80;;;;;;5010752;28;20249;-79
2023/02/28 03:58:25;;;;;;;1.77;0.90;;;2.10;86.80;;;;;;4993529;28;20181;-79
2023/02/28 04:01:19;;;;;;;3.53;1.10;;;2.20;87.10;;;;;;4976513;28;20202;-79
2023/02/28 04:03:45;;;;;;;1.70;0.95;;;2.10;87.10;;;;;;4992599;28;20174;-79
2023/02/28 04:06:18;;;;;;;2.20;1.13;;;2.10;86.70;;;;;;5009172;28;20173;-79
2023/02/28 04:08:44;;;;;;;1.85;1.10;;;2.10;87.80;;;;;;5011093;28;20627;-79
2023/02/28 04:11:18;;;;;;;2.30;1.13;;;2.10;87.50;;;;;;5007772;28;20597;-79
2023/02/28 04:13:44;;;;;;;2.05;1.27;;;2.00;87.60;;;;;;4992811;28;20625;-79
2023/02/28 04:16:13;;;;;;;2.47;1.00;;;2.00;87.40;;;;;;5010003;28;20604;-79
2023/02/28 04:18:39;;;;;;;2.03;1.00;;;2.00;87.80;;;;;;4992787;28;20170;-79
2023/02/28 04:21:06;;;;;;;3.15;1.60;;;2.00;88.00;;;;;;5018285;28;20226;-79
2023/02/28 04:23:32;;;;;;;2.10;1.25;;;1.90;88.50;;;;;;5009907;28;20178;-79
2023/02/28 04:25:58;;;;;;;1.80;1.05;;;1.90;89.30;;;;;;5009454;28;20166;-79
2023/02/28 04:28:24;;;;;;;4.83;1.50;;;1.90;88.90;;;;;;5008464;28;20185;-79
2023/02/28 04:30:57;;;;;;;2.23;1.30;;;1.80;89.50;;;;;;4992227;28;20625;-79
2023/02/28 04:33:23;;;;;;;3.38;1.20;;;1.80;89.40;;;;;;4969125;28;20600;-79
2023/02/28 04:36:02;;;;;;;5.82;1.35;;;1.80;89.00;;;;;;4992848;28;20627;-79
2023/02/28 04:38:29;;;;;;;4.88;1.35;;;1.80;89.40;;;;;;5010525;28;20584;-79
2023/02/28 04:40:57;;;;;;;3.78;1.45;;;1.80;89.30;;;;;;4992060;28;20225;-79
2023/02/28 04:43:23;;;;;;;4.40;1.65;;;1.70;90.10;;;;;;5010337;28;20542;-79
2023/02/28 04:45:48;;;;;;;1.70;1.20;;;1.70;89.60;;;;;;4992651;28;20178;-79
2023/02/28 04:48:14;;;;;;;3.20;1.00;;;1.70;90.10;;;;;;5009611;28;20822;-79
2023/02/28 04:50:40;;;;;;;2.35;1.73;;;1.70;90.00;;;;;;4975478;28;20220;-79
2023/02/28 04:53:06;;;;;;;2.53;1.20;;;1.70;90.10;;;;;;5010332;28;20179;-79
2023/02/28 04:55:31;;;;;;;2.53;1.70;;;1.70;90.30;;;;;;5010461;28;20268;-79
2023/02/28 04:57:57;;;;;;;2.27;1.30;;;1.70;90.70;;;;;;5015795;28;20169;-79
2023/02/28 05:00:23;;;;;;;2.30;1.40;;;1.70;90.50;;;;;;5030748;28;20186;-79
2023/02/28 05:02:49;;;;;;;3.47;1.63;;;1.70;90.50;;;;;;4995708;28;20209;-79
2023/02/28 05:05:17;;;;;;;2.13;1.20;;;1.70;90.50;;;;;;5030113;28;20205;-79
2023/02/28 05:07:44;;;;;;;5.50;1.73;;;1.70;90.70;;;;;;5029806;28;20266;-79
2023/02/28 05:10:11;;;;;;;1.92;1.30;;;1.70;90.70;;;;;;5029502;28;20203;-79
2023/02/28 05:12:36;;;;;;;2.15;1.48;;;1.70;90.50;;;;;;5021911;28;20186;-79
2023/02/28 05:15:04;;;;;;;2.63;1.33;;;1.70;90.50;;;;;;4994385;28;20198;-79
2023/02/28 05:17:31;;;;;;;2.40;1.05;;;1.70;90.40;;;;;;4996226;28;20569;-78
2023/02/28 05:19:56;;;;;;;3.10;1.50;;;1.70;90.80;;;;;;4999807;28;20196;-78
2023/02/28 05:22:22;;;;;;;3.20;1.50;;;1.70;90.60;;;;;;5015661;28;20646;-79
2023/02/28 05:24:48;;;;;;;4.57;1.70;;;1.70;91.30;;;;;;5015473;28;20607;-79
2023/02/28 05:27:13;;;;;;;2.20;1.50;;;1.70;90.80;;;;;;5015834;28;20990;-78
2023/02/28 05:29:45;;;;;;;1.70;1.20;;;1.70;90.80;;;;;;5014884;28;20204;-80
2023/02/28 05:32:11;;;;;;;2.38;1.17;;;1.70;91.10;;;;;;5015172;28;20185;-80
2023/02/28 05:34:38;;;;;;;3.65;1.75;;;1.70;90.70;;;;;;5015605;28;20197;-80
2023/02/28 05:37:05;;;;;;;2.78;1.20;;;1.70;90.90;;;;;;5019897;28;20584;-79
2023/02/28 05:39:31;;;;;;;2.20;1.30;;;1.70;90.90;;;;;;5015641;28;20186;-80
2023/02/28 05:41:57;;;;;;;5.53;1.53;;;1.70;90.80;;;;;;5014338;28;20170;-80
2023/02/28 05:44:22;;;;;;;3.05;1.42;;;1.60;91.20;;;;;;4999311;28;20663;-80
2023/02/28 05:46:48;;;;;;;2.57;1.60;;;1.70;91.00;;;;;;5032733;28;20170;-80
2023/02/28 05:49:14;;;;;;;2.60;1.60;;;1.60;91.10;;;;;;5033042;28;20177;-80
2023/02/28 05:51:39;;;;;;;2.53;1.10;;;1.60;91.10;;;;;;5032173;28;20711;-80
2023/02/28 05:54:06;;;;;;;1.80;0.97;;;1.60;91.40;;;;;;5015048;28;20202;-79
2023/02/28 05:56:34;;;;;;;3.15;1.25;;;1.60;91.00;;;;;;5015565;28;20514;-79
2023/02/28 05:59:00;;;;;;;2.30;1.77;;;1.70;91.00;;;;;;4982309;28;20652;-79
2023/02/28 06:01:37;;;;;;;3.80;2.50;;;1.70;91.70;;;;;;5031969;28;20227;-79
2023/02/28 06:04:05;;;;;;;3.88;1.63;;;1.70;91.30;;;;;;5011288;28;20585;-79
2023/02/28 06:06:30;;;;;;;2.63;1.08;;;1.70;91.10;;;;;;5011962;28;20587;-81
2023/02/28 06:08:57;;;;;;;2.23;1.47;;;1.70;91.10;;;;;;4994155;28;20194;-80
2023/02/28 06:11:26;;;;;;;2.75;1.40;;;1.70;91.00;;;;;;4994041;28;20527;-80
2023/02/28 06:14:02;;;;;;;3.03;1.50;;;1.70;90.90;;;;;;4999873;28;20174;-80
2023/02/28 06:16:28;;;;;;;3.05;1.70;;;1.80;90.90;;;;;;4994269;28;20829;-80
2023/02/28 06:18:57;;;;;;;1.88;1.13;;;1.80;90.80;;;;;;4978743;28;20194;-80
2023/02/28 06:21:23;;;;;;;4.15;1.30;;;1.80;90.80;;;;;;5010783;28;20240;-80
2023/02/28 06:23:48;;;;;;;2.20;1.10;;;1.80;90.80;;;;;;5014877;28;20228;-81
2023/02/28 06:26:14;;;;;;;1.67;1.03;;;1.80;90.70;;;;;;5013954;28;20525;-81
2023/02/28 06:28:40;;;;;;;1.90;1.27;;;1.80;90.70;;;;;;5014761;28;20796;-81
2023/02/28 06:31:09;;;;;;;1.70;1.00;;;1.80;90.60;;;;;;5031042;28;20190;-81
2023/02/28 06:33:37;;;;;;;2.25;1.25;;;1.80;90.70;;;;;;5014318;28;20178;-80
2023/02/28 06:36:04;;;;;;;5.60;1.35;;;1.90;90.70;;;;;;5014570;28;20257;-80
2023/02/28 06:38:30;;;;;;;2.90;1.52;;;1.90;90.70;;;;;;5032983;28;20178;-81
2023/02/28 06:40:58;;;;;;;1.95;1.42;;;1.90;90.90;;;;;;5013607;28;20284;-80
2023/02/28 06:43:25;;;;;;;2.55;1.55;;;1.90;90.80;;;;;;5031755;28;20178;-81
2023/02/28 06:45:55;;;;;;;2.97;1.33;;;1.90;90.90;;;;;;5014291;28;20173;-79
2023/02/28 06:48:21;;;;;;;2.97;1.65;;;1.90;90.80;;;;;;5014306;28;20552;-79
2023/02/28 06:50:47;;;;;;;3.25;1.40;;;2.00;90.90;;;;;;5018809;28;20209;-79
2023/02/28 06:53:13;;;;;;;2.77;1.50;;;2.00;90.90;;;;;;5013533;28;20216;-79
2023/02/28 06:55:39;;;;;;;1.93;1.20;;;2.00;91.00;;;;;;5027764;28;20975;-79
2023/02/28 06:58:14;;;;;;;2.90;1.30;;;2.00;90.90;;;;;;4993979;28;20570;-79
2023/02/28 07:00:44;;;;;;;2.97;1.60;;;2.00;90.90;;;;;;5008320;28;20193;-80
2023/02/28 07:03:12;;;;;;;3.13;1.00;;;2.00;90.90;;;;;;4961329;28;20181;-79
2023/02/28 07:05:38;;;;;;;2.38;1.20;;;2.10;90.80;;;;;;4993851;28;20586;-79
2023/02/28 07:08:05;;;;;;;1.98;1.20;;;2.10;90.80;;;;;;5011458;28;20182;-79
2023/02/28 07:10:33;;;;;;;3.35;1.40;;;2.10;90.80;;;;;;4993145;28;20662;-80
2023/02/28 07:12:59;;;;;;;2.40;1.50;;;2.20;90.80;;;;;;5011180;28;20185;-80
2023/02/28 07:15:25;;;;;;;1.92;1.30;;;2.20;90.80;;;;;;4993171;28;20256;-79
2023/02/28 07:17:51;;;;;;;2.53;1.30;;;2.20;90.70;;;;;;5011553;28;20162;-79
2023/02/28 07:20:17;;;;;;;3.13;1.80;;;2.30;90.80;;;;;;5018241;28;20200;-78
2023/02/28 07:22:42;;;;;;;2.00;1.33;;;2.30;90.80;;;;;;5013267;28;20572;-79
2023/02/28 07:25:09;;;;;;;2.53;1.30;;;2.30;90.70;;;;;;5013188;28;20268;-78
2023/02/28 07:27:34;;;;;;;2.92;1.23;;;2.40;91.00;;;;;;4999561;28;20906;-79
2023/02/28 07:30:04;;;;;;;2.50;1.17;;;2.40;90.70;;;;;;4976392;28;20198;-79
2023/02/28 07:32:30;;;;;;;4.40;1.80;;;2.40;90.60;;;;;;4992823;28;20181;-79
2023/02/28 07:34:56;;;;;;;5.27;1.77;;;2.50;90.60;;;;;;5010287;28;20190;-79
2023/02/28 07:37:21;;;;;;;3.20;1.27;;;2.50;90.30;;;;;;5010234;28;20619;-79
2023/02/28 07:39:47;;;;;;;3.17;1.43;;;2.50;90.40;;;;;;4991499;28;20190;-78
2023/02/28 07:42:13;;;;;;;3.23;1.57;;;2.60;90.50;;;;;;4992808;28;20178;-78
2023/02/28 07:44:40;;;;;;;2.03;1.33;;;2.70;90.30;;;;;;5010671;28;20193;-78
2023/02/28 07:47:10;;;;;;;2.95;1.10;;;2.70;90.30;;;;;;5010903;28;20653;-78
2023/02/28 07:49:36;;;;;;;2.35;1.50;;;2.80;90.40;;;;;;4988502;28;20213;-78
2023/02/28 07:52:04;;;;;;;2.40;2.08;;;2.80;90.40;;;;;;4992440;28;20236;-78
2023/02/28 07:54:30;;;;;;;2.28;1.20;;;2.90;89.90;;;;;;4992947;28;20220;-78
2023/02/28 07:56:56;;;;;;;2.83;1.20;;;3.00;90.00;;;;;;4993319;28;20630;-78
2023/02/28 07:59:21;;;;;;;3.90;1.93;;;3.00;90.40;;;;;;4992691;28;20617;-78
2023/02/28 08:01:50;;;;;;;1.97;1.00;;;3.10;89.70;;;;;;4992546;28;20186;-77
2023/02/28 08:04:17;;;;;;;4.82;1.70;;;3.20;89.40;;;;;;5012155;28;20557;-77
2023/02/28 08:06:43;;;;;;;2.33;1.40;;;3.20;89.30;;;;;;4993018;28;20265;-78
2023/02/28 08:09:09;;;;;;;3.15;1.67;;;3.30;88.60;;;;;;4992311;28;20182;-76
2023/02/28 08:11:35;;;;;;;2.57;1.33;;;3.40;88.30;;;;;;5008996;28;20178;-76
2023/02/28 08:14:00;;;;;;;1.90;1.20;;;3.50;88.40;;;;;;5010335;28;20202;-75
2023/02/28 08:16:26;;;;;;;2.05;1.20;;;3.50;88.20;;;;;;4975885;28;20178;-76
2023/02/28 08:18:52;;;;;;;2.63;1.50;;;3.60;88.20;;;;;;5010919;28;20265;-75
2023/02/28 08:21:20;;;;;;;1.60;1.08;;;3.70;86.10;;;;;;4995534;28;20658;-76
2023/02/28 08:23:50;;;;;;;3.28;1.48;;;3.80;87.80;;;;;;5010959;28;20534;-76
2023/02/28 08:26:17;;;;;;;2.80;1.15;;;4.00;87.10;;;;;;5008762;28;20178;-76
2023/02/28 08:28:44;;;;;;;2.20;1.50;;;4.20;87.60;;;;;;5009350;28;20185;-76
2023/02/28 08:31:13;;;;;;;2.67;1.50;;;4.70;89.60;;;;;;4992455;28;20202;-76
2023/02/28 08:33:39;;;;;;;2.80;1.50;;;5.40;90.50;;;;;;5010181;28;20633;-76
2023/02/28 08:36:06;;;;;;;2.75;1.40;;;6.30;88.90;;;;;;5011032;28;20197;-77
2023/02/28 08:38:32;;;;;;;3.22;1.00;;;7.50;91.40;;;;;;5009703;28;20194;-77
2023/02/28 08:41:00;;;;;;;3.30;1.17;;;8.40;92.70;;;;;;5008274;28;20639;-77
2023/02/28 08:43:25;;;;;;;3.45;0.90;;;9.50;91.70;;;;;;5009583;28;20173;-77
2023/02/28 08:45:52;;;;;;;6.10;1.03;;;10.50;90.40;;;;;;5009305;28;20186;-77
2023/02/28 08:48:18;;;;;;;2.33;1.30;;;11.40;82.20;;;;;;5010206;28;20945;-77
2023/02/28 08:50:43;;;;;;;2.57;1.10;;;12.00;73.80;;;;;;5011480;28;20648;-77
2023/02/28 08:53:09;;;;;;;2.10;1.10;;;12.50;66.60;;;;;;5012463;28;20269;-77
2023/02/28 08:55:35;;;;;;;2.10;1.10;;;13.30;72.50;;;;;;5012032;28;20221;-77
2023/02/28 08:58:01;;;;;;;1.60;0.70;;;13.90;70.10;;;;;;5012578;28;20182;-77
2023/02/28 09:00:27;;;;;;;2.10;1.00;;;14.40;67.10;;;;;;4995439;28;20610;-77
2023/02/28 09:02:54;;;;;;;3.30;0.90;;;14.80;60.60;;;;;;4996417;28;20573;-77
2023/02/28 09:05:20;;;;;;;2.27;1.03;;;15.10;56.70;;;;;;5013531;28;20576;-78
2023/02/28 09:07:45;;;;;;;2.07;1.23;;;15.30;58.30;;;;;;4993699;28;20616;-78
2023/02/28 09:10:11;;;;;;;1.60;0.80;;;15.70;55.60;;;;;;4994454;28;20199;-77
2023/02/28 09:12:37;;;;;;;2.00;1.00;;;15.90;50.60;;;;;;4979355;28;20517;-77
2023/02/28 09:15:03;;;;;;;2.27;0.87;;;16.10;49.30;;;;;;4996186;28;20734;-77
2023/02/28 09:17:29;;;;;;;1.60;0.70;;;16.00;49.80;;;;;;4997406;28;20174;-77
2023/02/28 09:19:55;;;;;;;1.60;0.70;;;16.20;51.70;;;;;;4998893;28;20963;-77
2023/02/28 09:22:21;;;;;;;1.67;0.80;;;16.50;52.40;;;;;;5008032;28;20182;-78
2023/02/28 09:24:47;;;;;;;1.90;0.80;;;16.70;48.90;;;;;;4993141;28;20257;-78
2023/02/28 09:27:12;;;;;;;1.70;0.63;;;16.70;45.20;;;;;;5012898;28;20672;-77
2023/02/28 09:29:38;;;;;;;1.73;0.93;;;16.70;45.50;;;;;;5010509;28;20217;-77
2023/02/28 09:32:06;;;;;;;2.80;0.83;;;16.60;45.70;;;;;;5012710;28;20171;-77
2023/02/28 09:34:32;;;;;;;1.60;0.90;;;16.50;43.80;;;;;;4995736;28;20202;-74
2023/02/28 09:36:57;;;;;;;2.20;1.00;;;16.50;40.10;;;;;;5013658;28;20603;-74
2023/02/28 09:39:26;;;;;;;2.10;1.07;;;16.30;43.70;;;;;;4995658;28;20218;-73
2023/02/28 09:41:55;;;;;;;2.47;1.10;;;16.60;41.90;;;;;;4996183;28;20224;-74
2023/02/28 09:44:30;;;;;;;2.60;0.80;;;16.60;39.30;;;;;;5013265;28;20708;-74
2023/02/28 09:47:04;;;;;;;2.93;1.00;;;16.60;42.60;;;;;;4996157;28;20588;-74
2023/02/28 09:49:40;;;;;;;2.70;1.10;;;16.80;41.90;;;;;;4979548;28;20643;-74
2023/02/28 09:52:15;;;;;;;2.60;0.90;;;16.70;42.10;;;;;;5013243;28;20633;-73
2023/02/28 09:54:47;;;;;;;2.00;0.90;;;16.90;42.40;;;;;;5027041;28;21005;-74
2023/02/28 09:57:45;;;;;;;4.80;1.10;;;17.10;42.90;;;;;;5004180;28;20624;-74
2023/02/28 10:00:21;;;;;;;3.20;1.00;;;17.50;40.80;;;;;;4994960;28;20773;-73
2023/02/28 10:02:59;;;;;;;1.70;0.90;;;17.80;40.30;;;;;;5011670;28;20584;-73
2023/02/28 10:05:28;;;;;;;2.30;0.90;;;17.70;42.60;;;;;;4995587;28;20579;-74
2023/02/28 10:08:01;;;;;;;1.50;0.80;;;17.70;38.60;;;;;;4994648;28;20593;-74
2023/02/28 10:10:43;;;;;;;1.50;0.80;;;17.90;42.10;;;;;;5004611;28;20675;-73
2023/02/28 10:13:19;;;;;;;2.70;0.70;;;17.80;35.90;;;;;;5011699;28;21018;-73
2023/02/28 10:15:49;;;;;;;3.30;1.00;;;17.60;38.80;;;;;;4995394;28;20628;-74
2023/02/28 10:23:00;;;;;;;2.80;0.70;;;17.60;38.80;;;;;;4944419;28;20608;-75
2023/02/28 10:25:29;;;;;;;4.20;0.90;;;17.40;34.80;;;;;;4992442;28;21128;-75
2023/02/28 10:28:14;;;;;;;1.60;0.70;;;17.30;38.50;;;;;;5009742;28;20945;-75
2023/02/28 10:30:51;;;;;;;1.80;0.80;;;17.20;37.50;;;;;;5011243;28;20973;-75
2023/02/28 10:33:27;;;;;;;7.83;1.33;;;17.00;38.40;;;;;;5012159;28;20927;-74
2023/02/28 10:35:53;;;;;;;3.00;0.80;;;16.70;37.50;;;;;;4994345;28;20687;-75
2023/02/28 10:38:28;;;;;;;2.43;0.90;;;16.30;35.50;;;;;;5011200;28;20593;-75
2023/02/28 10:41:12;;;;;;;2.27;1.10;;;15.80;35.90;;;;;;5010957;28;20976;-75
2023/02/28 10:43:39;;;;;;;3.20;1.03;;;15.70;37.20;;;;;;4994311;28;21152;-74
2023/02/28 10:46:25;;;;;;;2.67;1.00;;;15.70;36.30;;;;;;5011031;28;20947;-74
2023/02/28 10:49:20;;;;;;;1.60;0.90;;;15.30;36.40;;;;;;5008649;28;20597;-74
2023/02/28 10:51:48;;;;;;;2.00;1.10;;;15.10;36.00;;;;;;4987205;28;20608;-74
2023/02/28 10:54:35;;;;;;;2.43;1.10;;;15.00;38.20;;;;;;5014007;28;20633;-74
2023/02/28 10:57:25;;;;;;;5.20;1.23;;;15.00;38.00;;;;;;5011264;28;20593;-74
2023/02/28 11:00:05;;;;;;;1.60;0.93;;;14.90;37.20;;;;;;4976855;28;20620;-74
2023/02/28 11:02:36;;;;;;;2.37;0.90;;;14.90;39.80;;;;;;4977380;28;21195;-74
2023/02/28 11:05:02;;;;;;;3.20;0.87;;;14.90;39.10;;;;;;5011072;28;20616;-74
2023/02/28 11:07:28;;;;;;;3.50;0.93;;;15.00;38.60;;;;;;5011122;28;20672;-74
2023/02/28 11:09:56;;;;;;;1.77;0.97;;;15.10;40.10;;;;;;5010364;28;20794;-74
2023/02/28 11:12:42;;;;;;;1.60;0.80;;;15.10;37.50;;;;;;5011052;28;20593;-74
2023/02/28 11:15:24;;;;;;;4.07;1.10;;;15.20;40.30;;;;;;5010565;28;21034;-74
2023/02/28 11:17:57;;;;;;;2.63;1.00;;;14.90;34.80;;;;;;4977667;28;20597;-75
2023/02/28 11:20:29;;;;;;;2.60;1.40;;;15.00;37.40;;;;;;5001140;28;20714;-75
2023/02/28 11:23:01;;;;;;;3.10;1.83;;;14.80;36.40;;;;;;5030675;28;20573;-75
2023/02/28 11:25:29;;;;;;;2.17;1.00;;;14.60;36.60;;;;;;5012857;28;20626;-75
2023/02/28 11:28:01;;;;;;;2.73;1.47;;;14.50;38.20;;;;;;5013251;28;20635;-75
2023/02/28 11:30:33;;;;;;;2.87;1.10;;;14.70;39.50;;;;;;5012555;28;21187;-75
2023/02/28 11:32:59;;;;;;;2.23;1.10;;;14.90;39.40;;;;;;5012392;28;20588;-75
2023/02/28 11:35:31;;;;;;;1.80;0.93;;;15.20;40.20;;;;;;5030540;28;20628;-75
2023/02/28 11:38:00;;;;;;;2.17;1.10;;;15.40;39.50;;;;;;5012637;28;20577;-75
2023/02/28 11:40:43;;;;;;;2.00;0.93;;;15.40;39.20;;;;;;5030009;28;20608;-75
2023/02/28 11:43:21;;;;;;;3.20;1.10;;;15.40;38.60;;;;;;5029807;28;20580;-74
2023/02/28 11:45:55;;;;;;;2.77;1.00;;;15.30;39.60;;;;;;5028181;28;20669;-75
2023/02/28 11:48:42;;;;;;;4.93;1.07;;;15.30;39.70;;;;;;5009992;28;20620;-74
2023/02/28 11:51:10;;;;;;;2.83;1.00;;;15.40;39.70;;;;;;4991977;28;20651;-74
2023/02/28 11:54:08;;;;;;;2.10;1.00;;;15.10;37.50;;;;;;5010156;28;20636;-74
2023/02/28 11:56:58;;;;;;;1.60;0.90;;;15.10;39.40;;;;;;5011382;28;20585;-74
2023/02/28 11:59:59;;;;;;;1.90;0.90;;;15.00;38.70;;;;;;4984796;28;20964;-74
2023/02/28 12:02:57;;;;;;;2.23;1.00;;;14.90;38.30;;;;;;5012415;28;20626;-74
2023/02/28 12:05:43;;;;;;;1.90;0.90;;;15.00;40.00;;;;;;5029663;28;20592;-74
2023/02/28 12:08:49;;;;;;;1.77;0.90;;;15.10;40.50;;;;;;5020923;28;20603;-74
2023/02/28 12:11:26;;;;;;;1.70;0.90;;;15.30;39.90;;;;;;4991479;28;20631;-74
2023/02/28 12:14:25;;;;;;;6.10;0.90;;;15.20;37.60;;;;;;4992753;28;21023;-74
2023/02/28 12:17:01;;;;;;;3.50;1.27;;;15.30;40.00;;;;;;4992441;28;20600;-74
2023/02/28 12:20:11;;;;;;;1.93;1.20;;;15.10;37.20;;;;;;4994516;28;20616;-74
2023/02/28 12:23:05;;;;;;;3.60;1.40;;;15.00;38.60;;;;;;4995735;28;20595;-74
2023/02/28 12:25:52;;;;;;;1.97;1.10;;;15.00;38.00;;;;;;5014215;28;20592;-74
2023/02/28 12:28:23;;;;;;;4.13;1.33;;;14.90;39.20;;;;;;5016128;28;20604;-73
2023/02/28 12:31:16;;;;;;;1.93;1.10;;;14.60;36.20;;;;;;5015903;28;20947;-73
2023/02/28 12:33:47;;;;;;;1.80;1.03;;;14.40;36.30;;;;;;5025703;28;20742;-73
2023/02/28 12:36:21;;;;;;;2.30;1.27;;;14.20;37.70;;;;;;5014976;28;20683;-73
2023/02/28 12:39:08;;;;;;;2.83;1.00;;;14.10;38.50;;;;;;5034002;28;20568;-74
2023/02/28 12:41:59;;;;;;;2.17;1.03;;;13.90;37.70;;;;;;5032350;28;20592;-74
2023/02/28 12:44:33;;;;;;;1.80;1.00;;;13.60;37.40;;;;;;5013863;28;20597;-74
2023/02/28 12:47:04;;;;;;;2.10;1.43;;;13.50;38.60;;;;;;4996637;28;20680;-74
2023/02/28 12:49:39;;;;;;;2.40;1.40;;;13.30;38.00;;;;;;5013414;28;20617;-74
2023/02/28 12:52:05;;;;;;;2.00;1.20;;;12.70;35.10;;;;;;5013972;28;20643;-74
2023/02/28 12:54:35;;;;;;;2.13;1.13;;;12.40;35.80;;;;;;5015852;28;21015;-74
2023/02/28 12:58:01;;;;;;;2.05;1.40;;;12.00;36.20;;;;;;5016603;28;20592;-76
2023/02/28 13:00:36;;;;;;;2.60;1.33;;;11.60;35.40;;;;;;5007679;23;20221;-74
2023/02/28 13:03:12;;;;;;;4.18;1.80;;;11.10;36.10;;;;;;5015773;28;20178;-74
2023/02/28 13:06:19;;;;;;;2.40;1.60;;;10.60;35.50;;;;;;5033057;28;20165;-74
2023/02/28 13:09:13;;;;;;;2.00;1.27;;;10.20;36.00;;;;;;5015794;28;20193;-74
2023/02/28 13:11:47;;;;;;;2.38;1.42;;;9.90;37.20;;;;;;4995112;28;20174;-74
2023/02/28 13:14:31;;;;;;;2.25;1.50;;;9.60;37.20;;;;;;4996039;28;20201;-74
2023/02/28 13:16:59;;;;;;;2.42;1.73;;;9.30;37.40;;;;;;5012058;28;20178;-74
2023/02/28 13:19:28;;;;;;;2.95;1.60;;;9.10;37.80;;;;;;4994043;28;20198;-74
2023/02/28 13:21:56;;;;;;;4.15;2.40;;;8.90;38.10;;;;;;4959422;28;20730;-74